Time;durP1;ratioP1;P1;durP2;ratioP2;P2;SDS_P1;SDS_P2;PMS_P1;PMS_P2;Temp;Humidity;BMP_temperature;BMP_pressure;BME280_temperature;BME280_humidity;BME280_pressure;Samples;Min_cycle;Max_cycle;Signal;HPM_P1;HPM_P2
2022/11/26 00:01:19;;;;;;;18.60;5.68;;;;;;;;;;5075273;28;20108;-58
2022/11/26 00:03:45;;;;;;;19.67;4.63;;;;;;;;;;5075120;28;20026;-58
2022/11/26 00:06:18;;;;;;;25.80;5.00;;;;;;;;;;5067035;28;20020;-58
2022/11/26 00:08:43;;;;;;;17.85;6.63;;;;;;;;;;5071855;28;21281;-58
2022/11/26 00:11:12;;;;;;;15.23;4.63;;;;;;;;;;5072593;28;20469;-58
2022/11/26 00:13:37;;;;;;;16.58;4.47;;;;;;;;;;5072794;28;20116;-57
2022/11/26 00:16:02;;;;;;;20.23;4.80;;;;;;;;;;5078863;28;20047;-57
2022/11/26 00:18:28;;;;;;;18.75;4.60;;;;;;;;;;5075572;28;20065;-58
2022/11/26 00:20:53;;;;;;;12.63;4.45;;;;;;;;;;5079613;28;20379;-57
2022/11/26 00:23:19;;;;;;;21.77;4.40;;;;;;;;;;5079520;28;20071;-58
2022/11/26 00:25:46;;;;;;;16.25;4.43;;;;;;;;;;5074329;28;20019;-57
2022/11/26 00:28:23;;;;;;;12.57;3.95;;;;;;;;;;5068818;28;20056;-58
2022/11/26 00:30:48;;;;;;;21.65;5.25;;;;;;;;;;5072654;28;20016;-57
2022/11/26 00:33:14;;;;;;;20.88;4.53;;;;;;;;;;5076728;28;20020;-58
2022/11/26 00:35:39;;;;;;;18.75;4.70;;;;;;;;;;5072757;28;20032;-57
2022/11/26 00:38:04;;;;;;;18.27;5.38;;;;;;;;;;5074744;28;20024;-58
2022/11/26 00:40:31;;;;;;;16.08;4.43;;;;;;;;;;5083463;28;20048;-58
2022/11/26 00:42:56;;;;;;;21.33;5.90;;;;;;;;;;5074041;28;20012;-57
2022/11/26 00:45:23;;;;;;;15.48;4.60;;;;;;;;;;5102776;27;20032;-57
2022/11/26 00:47:48;;;;;;;16.42;5.07;;;;;;;;;;5079723;28;20055;-57
2022/11/26 00:50:14;;;;;;;26.55;5.03;;;;;;;;;;5079130;28;20067;-57
2022/11/26 00:52:40;;;;;;;16.08;5.13;;;;;;;;;;5085803;28;20026;-57
2022/11/26 00:55:09;;;;;;;25.30;5.57;;;;;;;;;;5076774;28;20099;-56
2022/11/26 00:57:35;;;;;;;25.75;5.10;;;;;;;;;;5076283;28;20473;-57
2022/11/26 01:00:00;;;;;;;22.98;5.35;;;;;;;;;;5080176;28;20627;-57
2022/11/26 01:02:25;;;;;;;17.48;4.80;;;;;;;;;;5078951;28;20101;-57
2022/11/26 01:04:50;;;;;;;13.45;4.88;;;;;;;;;;5077315;28;20020;-56
2022/11/26 01:07:16;;;;;;;21.23;5.35;;;;;;;;;;5078252;28;20088;-56
2022/11/26 01:09:41;;;;;;;13.77;5.03;;;;;;;;;;5079671;28;20056;-56
2022/11/26 01:12:11;;;;;;;20.27;5.63;;;;;;;;;;5077707;28;20023;-57
2022/11/26 01:14:36;;;;;;;20.17;5.13;;;;;;;;;;5070350;28;20016;-57
2022/11/26 01:17:01;;;;;;;12.80;5.43;;;;;;;;;;5075520;28;20031;-57
2022/11/26 01:19:26;;;;;;;15.25;5.25;;;;;;;;;;5073853;28;20047;-57
2022/11/26 01:21:52;;;;;;;14.98;5.45;;;;;;;;;;5071336;28;20547;-57
2022/11/26 01:24:17;;;;;;;17.88;5.30;;;;;;;;;;5076960;28;20028;-57
2022/11/26 01:26:42;;;;;;;17.60;5.90;;;;;;;;;;5086145;28;20034;-57
2022/11/26 01:29:17;;;;;;;18.77;5.82;;;;;;;;;;5075112;28;20036;-56
2022/11/26 01:31:42;;;;;;;14.52;5.18;;;;;;;;;;5080829;28;20077;-57
2022/11/26 01:34:08;;;;;;;17.75;5.75;;;;;;;;;;5075365;28;20024;-57
2022/11/26 01:36:34;;;;;;;18.98;5.57;;;;;;;;;;5077822;28;20103;-57
2022/11/26 01:39:03;;;;;;;20.60;4.78;;;;;;;;;;5076803;28;20078;-57
2022/11/26 01:41:29;;;;;;;14.43;5.55;;;;;;;;;;5091729;28;20024;-57
2022/11/26 01:43:54;;;;;;;24.00;5.60;;;;;;;;;;5086681;28;20097;-57
2022/11/26 01:46:19;;;;;;;21.88;6.38;;;;;;;;;;5079853;28;20028;-57
2022/11/26 01:48:45;;;;;;;20.25;5.57;;;;;;;;;;5084981;28;20032;-57
2022/11/26 01:51:11;;;;;;;14.75;5.05;;;;;;;;;;5083638;28;20059;-57
2022/11/26 01:53:42;;;;;;;16.98;4.10;;;;;;;;;;5089170;28;20376;-57
2022/11/26 01:56:10;;;;;;;14.40;4.60;;;;;;;;;;5079381;28;20146;-57
2022/11/26 01:58:39;;;;;;;18.58;5.97;;;;;;;;;;5079836;28;20052;-57
2022/11/26 02:01:05;;;;;;;18.05;5.45;;;;;;;;;;5074495;28;20473;-57
2022/11/26 02:03:31;;;;;;;20.67;5.20;;;;;;;;;;5078881;28;20032;-56
2022/11/26 02:05:58;;;;;;;19.77;5.22;;;;;;;;;;5067429;28;20024;-57
2022/11/26 02:08:24;;;;;;;19.00;6.32;;;;;;;;;;5075646;28;20674;-56
2022/11/26 02:10:50;;;;;;;25.05;5.63;;;;;;;;;;5077577;28;20057;-57
2022/11/26 02:13:15;;;;;;;18.00;5.57;;;;;;;;;;5079209;28;20659;-56
2022/11/26 02:15:43;;;;;;;18.25;5.65;;;;;;;;;;5077636;28;20016;-57
2022/11/26 02:18:09;;;;;;;11.45;5.43;;;;;;;;;;5082897;28;20544;-57
2022/11/26 02:20:44;;;;;;;17.00;4.85;;;;;;;;;;5078069;28;20060;-56
2022/11/26 02:23:24;;;;;;;14.07;5.28;;;;;;;;;;5104500;27;20024;-56
2022/11/26 02:25:52;;;;;;;11.98;4.35;;;;;;;;;;5079868;28;20459;-56
2022/11/26 02:28:20;;;;;;;22.63;5.68;;;;;;;;;;5079641;28;20032;-56
2022/11/26 02:30:47;;;;;;;10.60;4.35;;;;;;;;;;5078109;28;20681;-56
2022/11/26 02:33:17;;;;;;;27.85;6.88;;;;;;;;;;5084082;28;20035;-57
2022/11/26 02:35:44;;;;;;;17.77;6.30;;;;;;;;;;5073654;28;20038;-56
2022/11/26 02:38:17;;;;;;;27.95;6.45;;;;;;;;;;5107735;27;20408;-56
2022/11/26 02:40:42;;;;;;;19.95;7.30;;;;;;;;;;5099056;27;20038;-56
2022/11/26 02:43:07;;;;;;;16.48;6.95;;;;;;;;;;5075053;28;20028;-55
2022/11/26 02:45:36;;;;;;;15.55;5.97;;;;;;;;;;5078396;28;20024;-57
2022/11/26 02:48:02;;;;;;;21.35;7.43;;;;;;;;;;5084378;28;20056;-56
2022/11/26 02:50:27;;;;;;;20.73;6.28;;;;;;;;;;5072936;28;20195;-57
2022/11/26 02:52:53;;;;;;;24.15;8.10;;;;;;;;;;5082757;28;20023;-56
2022/11/26 02:55:18;;;;;;;16.75;6.22;;;;;;;;;;5079955;28;20020;-56
2022/11/26 02:57:45;;;;;;;15.18;6.63;;;;;;;;;;5079664;28;20028;-56
2022/11/26 03:00:10;;;;;;;20.98;8.80;;;;;;;;;;5075776;28;20028;-56
2022/11/26 03:02:41;;;;;;;28.63;7.32;;;;;;;;;;5071186;28;20482;-57
2022/11/26 03:05:06;;;;;;;138.82;8.70;;;;;;;;;;5118742;27;20041;-56
2022/11/26 03:07:31;;;;;;;110.80;5.95;;;;;;;;;;5087751;28;20056;-57
2022/11/26 03:09:57;;;;;;;124.57;6.95;;;;;;;;;;5080127;28;20028;-56
2022/11/26 03:12:23;;;;;;;88.57;5.95;;;;;;;;;;5082515;28;20023;-56
2022/11/26 03:14:48;;;;;;;146.02;9.63;;;;;;;;;;5084923;28;20032;-56
2022/11/26 03:17:13;;;;;;;97.75;9.30;;;;;;;;;;5082416;28;20054;-55
2022/11/26 03:19:39;;;;;;;47.42;9.45;;;;;;;;;;5084433;28;20406;-55
2022/11/26 03:22:04;;;;;;;17.17;5.65;;;;;;;;;;5091891;28;20053;-56
2022/11/26 03:24:29;;;;;;;26.40;7.43;;;;;;;;;;5077301;28;20028;-56
2022/11/26 03:26:54;;;;;;;38.63;8.23;;;;;;;;;;5078066;28;20579;-56
2022/11/26 03:29:20;;;;;;;51.42;6.82;;;;;;;;;;5073837;28;20044;-56
2022/11/26 03:31:45;;;;;;;36.67;8.23;;;;;;;;;;5080390;28;20028;-56
2022/11/26 03:34:10;;;;;;;78.10;10.13;;;;;;;;;;5079104;28;20031;-56
2022/11/26 03:36:35;;;;;;;29.02;5.32;;;;;;;;;;5077547;28;20028;-56
2022/11/26 03:39:01;;;;;;;106.50;10.23;;;;;;;;;;5078378;28;20032;-56
2022/11/26 03:41:26;;;;;;;24.27;5.93;;;;;;;;;;5070862;28;20122;-56
2022/11/26 03:43:51;;;;;;;21.52;6.03;;;;;;;;;;5075652;28;20162;-56
2022/11/26 03:46:16;;;;;;;38.50;6.75;;;;;;;;;;5078744;28;20032;-56
2022/11/26 03:48:42;;;;;;;22.70;4.25;;;;;;;;;;5074292;28;20048;-55
2022/11/26 03:51:07;;;;;;;34.17;6.80;;;;;;;;;;5085099;28;20027;-55
2022/11/26 03:53:32;;;;;;;52.90;7.63;;;;;;;;;;5078489;28;20023;-55
2022/11/26 03:55:58;;;;;;;41.22;7.40;;;;;;;;;;5075550;28;20032;-55
2022/11/26 03:58:23;;;;;;;59.80;7.78;;;;;;;;;;5082405;28;20170;-56
2022/11/26 04:00:48;;;;;;;118.15;10.27;;;;;;;;;;5079866;28;20028;-56
2022/11/26 04:03:13;;;;;;;50.00;6.40;;;;;;;;;;5075968;28;20032;-56
2022/11/26 04:05:38;;;;;;;48.45;7.30;;;;;;;;;;5079098;28;20451;-56
2022/11/26 04:08:04;;;;;;;57.10;7.68;;;;;;;;;;5075875;28;20064;-55
2022/11/26 04:10:29;;;;;;;23.15;5.93;;;;;;;;;;5078782;28;20027;-56
2022/11/26 04:12:54;;;;;;;75.70;8.18;;;;;;;;;;5077319;28;20103;-56
2022/11/26 04:15:19;;;;;;;34.97;6.43;;;;;;;;;;5083870;28;20016;-55
2022/11/26 04:17:45;;;;;;;124.53;9.93;;;;;;;;;;5079167;28;20012;-56
2022/11/26 04:20:10;;;;;;;48.50;8.23;;;;;;;;;;5076973;28;20920;-55
2022/11/26 04:22:35;;;;;;;22.65;5.88;;;;;;;;;;5071945;28;20404;-55
2022/11/26 04:25:00;;;;;;;65.10;8.43;;;;;;;;;;5080490;28;20038;-55
2022/11/26 04:27:26;;;;;;;14.68;6.50;;;;;;;;;;5102209;27;20031;-56
2022/11/26 04:29:51;;;;;;;72.18;8.63;;;;;;;;;;5081878;28;20027;-56
2022/11/26 04:32:16;;;;;;;52.97;9.15;;;;;;;;;;5070888;28;20059;-56
2022/11/26 04:34:41;;;;;;;65.45;7.97;;;;;;;;;;5074190;28;20482;-55
2022/11/26 04:37:06;;;;;;;68.38;8.70;;;;;;;;;;5081281;28;20776;-55
2022/11/26 04:39:32;;;;;;;53.63;8.15;;;;;;;;;;5076494;28;20459;-55
2022/11/26 04:41:57;;;;;;;52.75;8.20;;;;;;;;;;5073782;28;20545;-56
2022/11/26 04:44:22;;;;;;;45.83;7.53;;;;;;;;;;5078196;28;20117;-55
2022/11/26 04:46:47;;;;;;;50.35;7.80;;;;;;;;;;5077837;28;20024;-57
2022/11/26 04:49:13;;;;;;;35.85;6.35;;;;;;;;;;5074107;28;20040;-54
2022/11/26 04:51:38;;;;;;;36.13;7.40;;;;;;;;;;5082277;28;20011;-55
2022/11/26 04:54:03;;;;;;;31.77;6.05;;;;;;;;;;5082907;28;20024;-55
2022/11/26 04:56:28;;;;;;;28.48;6.15;;;;;;;;;;5084257;28;20024;-54
2022/11/26 04:58:54;;;;;;;22.20;5.40;;;;;;;;;;5081135;28;20052;-56
2022/11/26 05:01:19;;;;;;;20.90;6.13;;;;;;;;;;5078311;28;20059;-56
2022/11/26 05:03:44;;;;;;;9.32;4.28;;;;;;;;;;5076915;28;20024;-55
2022/11/26 05:06:10;;;;;;;19.75;5.65;;;;;;;;;;5088194;28;20023;-55
2022/11/26 05:08:35;;;;;;;15.27;5.03;;;;;;;;;;5080658;28;20048;-54
2022/11/26 05:11:02;;;;;;;27.42;5.85;;;;;;;;;;5087248;28;20035;-54
2022/11/26 05:13:27;;;;;;;26.50;6.43;;;;;;;;;;5082035;28;20039;-54
2022/11/26 05:15:52;;;;;;;17.83;5.15;;;;;;;;;;5082089;28;20028;-55
2022/11/26 05:18:17;;;;;;;25.95;7.45;;;;;;;;;;5089706;28;20144;-55
2022/11/26 05:20:42;;;;;;;22.95;7.18;;;;;;;;;;5076210;28;20024;-56
2022/11/26 05:23:08;;;;;;;22.02;7.63;;;;;;;;;;5078107;28;20103;-56
2022/11/26 05:25:33;;;;;;;21.50;9.07;;;;;;;;;;5075411;28;20119;-56
2022/11/26 05:27:58;;;;;;;20.95;7.05;;;;;;;;;;5079670;28;20063;-55
2022/11/26 05:30:23;;;;;;;23.42;7.55;;;;;;;;;;5088019;28;20522;-56
2022/11/26 05:32:49;;;;;;;25.88;8.50;;;;;;;;;;5078667;28;20864;-57
2022/11/26 05:35:14;;;;;;;20.73;9.02;;;;;;;;;;5073219;28;20112;-56
2022/11/26 05:37:39;;;;;;;13.10;4.97;;;;;;;;;;5084770;28;20125;-55
2022/11/26 05:40:05;;;;;;;14.35;6.95;;;;;;;;;;5082834;28;20481;-56
2022/11/26 05:42:30;;;;;;;14.40;5.70;;;;;;;;;;5089086;28;20316;-57
2022/11/26 05:44:55;;;;;;;16.10;6.43;;;;;;;;;;5081145;28;20032;-55
2022/11/26 05:47:21;;;;;;;18.60;8.35;;;;;;;;;;5082684;28;20020;-56
2022/11/26 05:49:46;;;;;;;17.95;7.55;;;;;;;;;;5087253;28;20059;-55
2022/11/26 05:52:11;;;;;;;10.30;5.57;;;;;;;;;;5080142;28;20020;-56
2022/11/26 05:54:36;;;;;;;23.27;6.38;;;;;;;;;;5083577;28;20920;-56
2022/11/26 05:57:02;;;;;;;18.75;6.43;;;;;;;;;;5080790;28;20650;-54
2022/11/26 05:59:27;;;;;;;17.48;7.50;;;;;;;;;;5081522;28;20028;-56
2022/11/26 06:01:52;;;;;;;25.77;8.93;;;;;;;;;;5081362;28;20504;-55
2022/11/26 06:04:18;;;;;;;13.18;5.35;;;;;;;;;;5079446;28;20081;-55
2022/11/26 06:06:43;;;;;;;9.07;4.72;;;;;;;;;;5081732;28;20051;-55
2022/11/26 06:09:08;;;;;;;21.65;7.07;;;;;;;;;;5079816;28;20032;-55
2022/11/26 06:11:33;;;;;;;29.70;7.85;;;;;;;;;;5088971;28;20081;-57
2022/11/26 06:13:59;;;;;;;55.45;9.43;;;;;;;;;;5082346;28;20028;-57
2022/11/26 06:16:24;;;;;;;21.98;7.18;;;;;;;;;;5082237;28;20028;-57
2022/11/26 06:18:49;;;;;;;48.05;8.10;;;;;;;;;;5080010;28;20015;-57
2022/11/26 06:21:14;;;;;;;119.07;8.57;;;;;;;;;;5082413;28;20145;-57
2022/11/26 06:23:40;;;;;;;89.13;10.98;;;;;;;;;;5080336;28;20036;-57
2022/11/26 06:26:08;;;;;;;34.70;5.47;;;;;;;;;;5074439;28;20479;-57
2022/11/26 06:28:33;;;;;;;33.83;8.38;;;;;;;;;;5077973;28;20070;-58
2022/11/26 06:30:59;;;;;;;17.67;7.40;;;;;;;;;;5071161;28;20399;-56
2022/11/26 06:33:24;;;;;;;14.88;5.60;;;;;;;;;;5085230;28;20031;-57
2022/11/26 06:35:49;;;;;;;17.45;7.13;;;;;;;;;;5079168;28;20032;-56
2022/11/26 06:38:14;;;;;;;12.68;5.45;;;;;;;;;;5083562;28;20024;-56
2022/11/26 06:40:40;;;;;;;26.02;8.35;;;;;;;;;;5074227;28;20024;-57
2022/11/26 06:43:05;;;;;;;14.52;6.47;;;;;;;;;;5077190;28;20756;-57
2022/11/26 06:45:30;;;;;;;17.83;7.28;;;;;;;;;;5074005;28;20035;-56
2022/11/26 06:47:55;;;;;;;13.68;5.47;;;;;;;;;;5081992;28;20046;-57
2022/11/26 06:50:21;;;;;;;21.00;5.78;;;;;;;;;;5079701;28;20024;-57
2022/11/26 06:52:49;;;;;;;29.65;9.13;;;;;;;;;;5085669;28;20019;-58
2022/11/26 06:55:14;;;;;;;31.05;9.48;;;;;;;;;;5079110;28;20071;-57
2022/11/26 06:57:39;;;;;;;27.42;8.52;;;;;;;;;;5078344;28;20047;-58
2022/11/26 07:00:05;;;;;;;23.75;9.48;;;;;;;;;;5079667;28;20012;-57
2022/11/26 07:02:30;;;;;;;34.25;10.77;;;;;;;;;;5073812;28;20016;-57
2022/11/26 07:04:55;;;;;;;13.80;4.15;;;;;;;;;;5076244;28;20497;-57
2022/11/26 07:07:21;;;;;;;20.55;8.00;;;;;;;;;;5081743;28;20496;-57
2022/11/26 07:09:46;;;;;;;24.02;8.93;;;;;;;;;;5079724;28;20046;-56
2022/11/26 07:12:11;;;;;;;16.48;5.97;;;;;;;;;;5078580;28;20013;-56
2022/11/26 07:14:36;;;;;;;18.98;5.72;;;;;;;;;;5079999;28;20139;-58
2022/11/26 07:17:02;;;;;;;15.73;6.65;;;;;;;;;;5077114;28;20047;-55
2022/11/26 07:19:27;;;;;;;23.58;7.65;;;;;;;;;;5073089;28;20021;-56
2022/11/26 07:21:53;;;;;;;18.80;7.13;;;;;;;;;;5075698;28;20110;-56
2022/11/26 07:24:18;;;;;;;17.08;7.07;;;;;;;;;;5078376;28;20043;-57
2022/11/26 07:26:43;;;;;;;20.60;7.32;;;;;;;;;;5078116;28;20106;-57
2022/11/26 07:29:09;;;;;;;25.20;7.40;;;;;;;;;;5070655;28;20101;-56
2022/11/26 07:31:35;;;;;;;39.55;16.83;;;;;;;;;;5073501;28;20032;-55
2022/11/26 07:34:00;;;;;;;37.47;17.10;;;;;;;;;;5074217;28;20150;-57
2022/11/26 07:36:26;;;;;;;70.95;33.05;;;;;;;;;;5081456;28;20111;-57
2022/11/26 07:38:58;;;;;;;24.85;11.43;;;;;;;;;;5072161;28;20031;-58
2022/11/26 07:41:24;;;;;;;23.80;9.73;;;;;;;;;;5081834;28;20035;-58
2022/11/26 07:43:49;;;;;;;18.33;7.53;;;;;;;;;;5074588;28;20464;-55
2022/11/26 07:46:15;;;;;;;23.42;8.93;;;;;;;;;;5076225;28;20025;-57
2022/11/26 07:48:41;;;;;;;20.23;8.93;;;;;;;;;;5076001;28;20060;-58
2022/11/26 07:51:06;;;;;;;15.95;8.43;;;;;;;;;;5073107;28;20032;-57
2022/11/26 07:53:32;;;;;;;21.52;8.95;;;;;;;;;;5084012;28;20028;-58
2022/11/26 07:55:58;;;;;;;51.70;9.80;;;;;;;;;;5078595;28;20024;-57
2022/11/26 07:58:23;;;;;;;149.93;9.88;;;;;;;;;;5077004;28;20077;-58
2022/11/26 08:00:48;;;;;;;65.47;12.38;;;;;;;;;;5072505;28;20086;-58
2022/11/26 08:03:13;;;;;;;74.53;10.10;;;;;;;;;;5070676;28;20111;-56
2022/11/26 08:05:42;;;;;;;106.55;9.95;;;;;;;;;;5074589;28;20024;-57
2022/11/26 08:08:07;;;;;;;58.55;5.15;;;;;;;;;;5080753;28;20685;-57
2022/11/26 08:10:32;;;;;;;38.80;6.18;;;;;;;;;;5074127;28;20039;-57
2022/11/26 08:12:59;;;;;;;40.45;5.90;;;;;;;;;;5080432;28;20048;-57
2022/11/26 08:15:24;;;;;;;18.80;4.13;;;;;;;;;;5068509;28;20450;-58
2022/11/26 08:17:53;;;;;;;17.38;5.93;;;;;;;;;;5077918;28;20108;-58
2022/11/26 08:20:18;;;;;;;11.10;4.32;;;;;;;;;;5078458;28;20024;-58
2022/11/26 08:22:43;;;;;;;12.63;5.45;;;;;;;;;;5081268;28;20398;-58
2022/11/26 08:25:08;;;;;;;12.45;4.75;;;;;;;;;;5070011;28;20024;-57
2022/11/26 08:27:34;;;;;;;11.43;5.95;;;;;;;;;;5079400;28;20035;-57
2022/11/26 08:29:59;;;;;;;15.25;6.15;;;;;;;;;;5075977;28;20050;-56
2022/11/26 08:32:24;;;;;;;18.13;6.75;;;;;;;;;;5074221;28;20077;-57
2022/11/26 08:34:49;;;;;;;10.57;5.28;;;;;;;;;;5074446;28;20513;-57
2022/11/26 08:37:15;;;;;;;12.40;6.18;;;;;;;;;;5076390;28;20023;-57
2022/11/26 08:39:40;;;;;;;11.85;6.78;;;;;;;;;;5080653;28;20103;-57
2022/11/26 08:42:05;;;;;;;10.35;4.40;;;;;;;;;;5076280;28;20043;-57
2022/11/26 08:44:30;;;;;;;11.43;5.47;;;;;;;;;;5080701;28;20902;-57
2022/11/26 08:46:55;;;;;;;12.15;6.32;;;;;;;;;;5112971;27;20377;-57
2022/11/26 08:49:21;;;;;;;39.97;6.72;;;;;;;;;;5079232;28;20128;-57
2022/11/26 08:51:46;;;;;;;9.68;5.32;;;;;;;;;;5078859;28;20043;-57
2022/11/26 08:54:11;;;;;;;14.00;6.22;;;;;;;;;;5077396;28;20052;-57
2022/11/26 08:56:37;;;;;;;14.02;6.75;;;;;;;;;;5073038;28;20684;-57
2022/11/26 08:59:02;;;;;;;16.45;7.30;;;;;;;;;;5080681;28;20035;-57
2022/11/26 09:01:28;;;;;;;12.88;6.05;;;;;;;;;;5073287;28;20032;-57
2022/11/26 09:03:54;;;;;;;17.52;7.80;;;;;;;;;;5077131;28;20020;-57
2022/11/26 09:06:19;;;;;;;13.73;5.75;;;;;;;;;;5074869;28;20028;-57
2022/11/26 09:11:44;;;;;;;17.92;8.05;;;;;;;;;;5041142;28;20032;-57
2022/11/26 09:14:09;;;;;;;10.85;5.65;;;;;;;;;;5109267;27;20103;-57
2022/11/26 09:16:34;;;;;;;15.18;5.97;;;;;;;;;;5078915;28;20110;-57
2022/11/26 09:19:00;;;;;;;11.25;5.13;;;;;;;;;;5074493;28;20458;-57
2022/11/26 09:21:25;;;;;;;10.00;3.70;;;;;;;;;;5074487;28;20126;-58
2022/11/26 09:23:50;;;;;;;10.90;4.90;;;;;;;;;;5079394;28;20137;-59
2022/11/26 09:26:19;;;;;;;10.73;3.58;;;;;;;;;;5078730;28;20314;-59
2022/11/26 09:28:45;;;;;;;9.88;4.43;;;;;;;;;;5077416;28;20418;-57
2022/11/26 09:31:10;;;;;;;7.35;3.42;;;;;;;;;;5073431;28;20024;-57
2022/11/26 09:33:35;;;;;;;11.23;4.45;;;;;;;;;;5078627;28;20020;-57
2022/11/26 09:36:04;;;;;;;11.50;3.58;;;;;;;;;;5073146;28;20028;-57
2022/11/26 09:38:30;;;;;;;12.75;4.05;;;;;;;;;;5078301;28;20024;-57
2022/11/26 09:40:58;;;;;;;9.52;4.90;;;;;;;;;;5078872;28;20498;-57
2022/11/26 09:43:28;;;;;;;11.20;4.05;;;;;;;;;;5076789;28;20024;-58
2022/11/26 09:45:54;;;;;;;14.37;4.17;;;;;;;;;;5079162;28;20027;-55
2022/11/26 09:48:20;;;;;;;12.27;4.38;;;;;;;;;;5077421;28;20498;-57
2022/11/26 09:50:45;;;;;;;7.13;3.95;;;;;;;;;;5085564;28;20021;-57
2022/11/26 09:53:13;;;;;;;12.98;4.05;;;;;;;;;;5080477;28;20031;-57
2022/11/26 09:55:40;;;;;;;12.48;3.92;;;;;;;;;;5077607;28;20069;-58
2022/11/26 09:58:14;;;;;;;11.43;3.97;;;;;;;;;;5082471;28;20020;-58
2022/11/26 10:00:41;;;;;;;14.32;3.85;;;;;;;;;;5081217;28;20028;-56
2022/11/26 10:03:11;;;;;;;5.65;3.40;;;;;;;;;;5077621;28;20065;-59
2022/11/26 10:05:38;;;;;;;8.90;3.47;;;;;;;;;;5074831;28;20030;-56
2022/11/26 10:08:12;;;;;;;9.55;3.40;;;;;;;;;;5075771;28;20059;-56
2022/11/26 10:10:44;;;;;;;11.70;3.90;;;;;;;;;;5072835;28;20035;-56
2022/11/26 10:13:18;;;;;;;11.55;4.13;;;;;;;;;;5076901;28;20016;-56
2022/11/26 10:15:57;;;;;;;8.73;3.38;;;;;;;;;;5074730;28;20020;-57
2022/11/26 10:18:42;;;;;;;9.90;3.00;;;;;;;;;;5074423;28;20696;-56
2022/11/26 10:21:07;;;;;;;9.40;3.22;;;;;;;;;;5074109;28;20024;-58
2022/11/26 10:23:34;;;;;;;11.32;3.97;;;;;;;;;;5082536;28;20020;-57
2022/11/26 10:25:59;;;;;;;7.95;3.22;;;;;;;;;;5074108;28;20028;-58
2022/11/26 10:28:36;;;;;;;9.43;2.90;;;;;;;;;;5078518;28;20383;-56
2022/11/26 10:31:02;;;;;;;12.57;3.25;;;;;;;;;;5074337;28;20020;-59
2022/11/26 10:33:29;;;;;;;8.60;3.00;;;;;;;;;;5080959;28;20036;-59
2022/11/26 10:35:54;;;;;;;11.60;2.88;;;;;;;;;;5077611;28;20016;-59
2022/11/26 10:38:20;;;;;;;8.38;3.03;;;;;;;;;;5076686;28;20429;-56
2022/11/26 10:40:45;;;;;;;22.42;8.30;;;;;;;;;;5075517;28;20595;-58
2022/11/26 10:43:12;;;;;;;8.30;2.75;;;;;;;;;;5077287;28;20754;-58
2022/11/26 10:45:55;;;;;;;12.95;3.30;;;;;;;;;;5081415;28;20052;-56
2022/11/26 10:48:23;;;;;;;15.02;6.25;;;;;;;;;;5086464;28;20124;-57
2022/11/26 10:51:03;;;;;;;11.73;6.15;;;;;;;;;;5078111;28;20522;-57
2022/11/26 10:53:30;;;;;;;13.48;6.57;;;;;;;;;;5074106;28;20651;-57
2022/11/26 10:55:58;;;;;;;10.43;4.30;;;;;;;;;;5078695;28;20035;-57
2022/11/26 10:58:30;;;;;;;13.45;4.47;;;;;;;;;;5080341;28;20099;-57
2022/11/26 11:00:56;;;;;;;11.00;2.92;;;;;;;;;;5069000;28;20023;-57
2022/11/26 11:03:22;;;;;;;9.30;3.75;;;;;;;;;;5109411;27;20135;-57
2022/11/26 11:05:47;;;;;;;12.25;4.15;;;;;;;;;;5072664;28;20136;-56
2022/11/26 11:08:26;;;;;;;6.70;3.13;;;;;;;;;;5073926;28;20121;-57
2022/11/26 11:10:58;;;;;;;14.05;4.68;;;;;;;;;;5075853;28;20115;-57
2022/11/26 11:13:37;;;;;;;8.43;2.50;;;;;;;;;;5078163;28;20024;-57
2022/11/26 11:16:02;;;;;;;9.48;3.53;;;;;;;;;;5079891;28;20115;-57
2022/11/26 11:18:29;;;;;;;13.45;3.97;;;;;;;;;;5084928;28;20127;-57
2022/11/26 11:20:55;;;;;;;10.68;3.40;;;;;;;;;;5072767;28;20486;-57
2022/11/26 11:23:30;;;;;;;15.30;5.47;;;;;;;;;;5071461;28;20119;-57
2022/11/26 11:25:57;;;;;;;10.55;3.65;;;;;;;;;;5075659;28;20016;-57
2022/11/26 11:28:23;;;;;;;9.77;3.08;;;;;;;;;;5080203;28;20033;-58
2022/11/26 11:31:02;;;;;;;11.38;2.85;;;;;;;;;;5071990;28;20617;-58
2022/11/26 11:33:27;;;;;;;14.82;3.85;;;;;;;;;;5078724;28;20375;-59
2022/11/26 11:35:58;;;;;;;15.10;6.30;;;;;;;;;;5081914;28;20012;-55
2022/11/26 11:38:24;;;;;;;14.02;4.57;;;;;;;;;;5081878;28;20420;-57
2022/11/26 11:40:49;;;;;;;10.18;3.60;;;;;;;;;;5073251;28;20012;-57
2022/11/26 11:43:15;;;;;;;12.15;4.20;;;;;;;;;;5077879;28;20027;-59
2022/11/26 11:45:41;;;;;;;9.70;3.80;;;;;;;;;;5078948;28;20029;-57
2022/11/26 11:48:06;;;;;;;9.98;3.28;;;;;;;;;;5078562;28;20099;-57
2022/11/26 11:50:32;;;;;;;9.77;3.78;;;;;;;;;;5083259;28;20547;-59
2022/11/26 11:53:03;;;;;;;12.13;2.95;;;;;;;;;;5079086;28;20024;-57
2022/11/26 11:55:45;;;;;;;22.50;8.13;;;;;;;;;;5075859;28;20025;-57
2022/11/26 11:58:33;;;;;;;14.43;5.38;;;;;;;;;;5114524;27;20548;-56
2022/11/26 12:01:04;;;;;;;14.32;4.45;;;;;;;;;;5079591;28;20038;-57
2022/11/26 12:03:45;;;;;;;13.48;4.90;;;;;;;;;;5073016;28;20028;-57
2022/11/26 12:06:18;;;;;;;13.30;4.45;;;;;;;;;;5077061;28;20024;-57
2022/11/26 12:08:43;;;;;;;14.05;5.25;;;;;;;;;;5071455;28;20072;-58
2022/11/26 12:11:15;;;;;;;13.57;4.55;;;;;;;;;;5072560;28;20158;-57
2022/11/26 12:13:42;;;;;;;17.73;8.15;;;;;;;;;;5076091;28;20789;-57
2022/11/26 12:16:08;;;;;;;10.48;3.30;;;;;;;;;;5112406;27;20099;-58
2022/11/26 12:18:43;;;;;;;11.93;4.60;;;;;;;;;;5071972;28;20831;-58
2022/11/26 12:21:15;;;;;;;15.43;4.38;;;;;;;;;;5071308;28;20411;-57
2022/11/26 12:23:43;;;;;;;14.32;3.63;;;;;;;;;;5073867;28;20115;-58
2022/11/26 12:26:15;;;;;;;18.10;4.28;;;;;;;;;;5074719;28;20074;-58
2022/11/26 12:28:48;;;;;;;10.45;4.13;;;;;;;;;;5082862;28;20694;-58
2022/11/26 12:31:14;;;;;;;10.90;3.40;;;;;;;;;;5077574;28;20020;-58
2022/11/26 12:33:44;;;;;;;9.93;2.92;;;;;;;;;;5103467;28;20457;-58
2022/11/26 12:36:13;;;;;;;8.25;2.88;;;;;;;;;;5083314;28;20005;-58
2022/11/26 12:38:43;;;;;;;9.70;3.80;;;;;;;;;;5076500;28;20089;-58
2022/11/26 12:41:16;;;;;;;12.23;3.47;;;;;;;;;;5075039;28;20069;-58
2022/11/26 12:44:00;;;;;;;15.27;4.28;;;;;;;;;;5073565;28;20056;-57
2022/11/26 12:46:37;;;;;;;9.52;3.13;;;;;;;;;;5076180;28;20102;-58
2022/11/26 12:49:11;;;;;;;12.98;2.92;;;;;;;;;;5078686;28;20169;-58
2022/11/26 12:51:37;;;;;;;14.90;3.30;;;;;;;;;;5073125;28;20037;-58
2022/11/26 12:54:05;;;;;;;8.00;3.20;;;;;;;;;;5082579;28;20038;-58
2022/11/26 12:56:33;;;;;;;8.90;3.00;;;;;;;;;;5074945;28;20486;-56
2022/11/26 12:59:09;;;;;;;14.05;3.13;;;;;;;;;;5076777;28;20042;-56
2022/11/26 13:01:34;;;;;;;12.15;3.03;;;;;;;;;;5104982;28;20024;-56
2022/11/26 13:04:00;;;;;;;14.70;3.33;;;;;;;;;;5102139;28;20027;-57
2022/11/26 13:06:45;;;;;;;10.50;3.50;;;;;;;;;;5071972;28;20028;-56
2022/11/26 13:09:16;;;;;;;10.13;2.38;;;;;;;;;;5080503;28;20155;-57
2022/11/26 13:11:44;;;;;;;9.77;2.97;;;;;;;;;;5082066;28;20417;-56
2022/11/26 13:14:12;;;;;;;11.82;2.85;;;;;;;;;;5070720;28;20025;-57
2022/11/26 13:16:39;;;;;;;8.05;2.65;;;;;;;;;;5071585;28;20020;-58
2022/11/26 13:19:10;;;;;;;13.07;2.50;;;;;;;;;;5075290;28;20028;-57
2022/11/26 13:21:35;;;;;;;;;;;;;;;;;;5096887;28;20067;-56
2022/11/26 13:24:00;;;;;;;9.80;2.88;;;;;;;;;;5079987;28;19920;-57
2022/11/26 13:26:25;;;;;;;10.98;2.75;;;;;;;;;;5077322;28;20276;-55
2022/11/26 13:29:02;;;;;;;9.13;2.60;;;;;;;;;;5083529;28;20119;-56
2022/11/26 13:31:30;;;;;;;14.02;4.40;;;;;;;;;;5078405;28;20012;-58
2022/11/26 13:34:24;;;;;;;15.50;3.40;;;;;;;;;;5076375;28;20055;-56
2022/11/26 13:36:52;;;;;;;13.52;5.45;;;;;;;;;;5070150;28;20580;-56
2022/11/26 13:39:36;;;;;;;60.55;35.47;;;;;;;;;;5076591;28;20031;-58
2022/11/26 13:42:02;;;;;;;13.30;5.07;;;;;;;;;;5087059;28;20482;-58
2022/11/26 13:44:36;;;;;;;14.05;6.50;;;;;;;;;;5077528;28;20020;-58
2022/11/26 13:47:05;;;;;;;15.73;8.70;;;;;;;;;;5081757;28;20028;-58
2022/11/26 13:49:33;;;;;;;39.80;25.17;;;;;;;;;;5073642;28;20036;-58
2022/11/26 13:52:03;;;;;;;18.40;8.48;;;;;;;;;;5077205;28;20572;-58
2022/11/26 13:54:30;;;;;;;9.88;3.83;;;;;;;;;;5085159;28;20024;-56
2022/11/26 13:57:05;;;;;;;18.00;10.73;;;;;;;;;;5079900;28;20020;-58
2022/11/26 13:59:30;;;;;;;10.68;3.58;;;;;;;;;;5081348;28;20020;-57
2022/11/26 14:01:55;;;;;;;10.77;3.92;;;;;;;;;;5074818;28;20031;-58
2022/11/26 14:04:21;;;;;;;8.90;5.05;;;;;;;;;;5077371;28;20465;-56
2022/11/26 14:07:04;;;;;;;12.27;4.32;;;;;;;;;;5074572;28;20425;-56
2022/11/26 14:09:41;;;;;;;9.98;4.95;;;;;;;;;;5078212;28;20028;-56
2022/11/26 14:12:07;;;;;;;13.73;4.00;;;;;;;;;;5083116;28;20107;-57
2022/11/26 14:14:33;;;;;;;19.25;10.63;;;;;;;;;;5081718;28;20537;-57
2022/11/26 14:17:01;;;;;;;14.73;10.20;;;;;;;;;;5073713;28;20543;-57
2022/11/26 14:19:47;;;;;;;8.77;2.92;;;;;;;;;;5078887;28;20016;-57
2022/11/26 14:22:21;;;;;;;10.45;5.65;;;;;;;;;;5066594;28;20025;-57
2022/11/26 14:24:49;;;;;;;8.00;3.00;;;;;;;;;;5076813;28;20127;-57
2022/11/26 14:27:24;;;;;;;9.27;5.63;;;;;;;;;;5082975;28;20020;-55
2022/11/26 14:30:00;;;;;;;10.70;3.97;;;;;;;;;;5077135;28;20036;-57
2022/11/26 14:32:26;;;;;;;11.38;3.88;;;;;;;;;;5078709;28;20043;-56
2022/11/26 14:34:52;;;;;;;12.85;4.15;;;;;;;;;;5079314;28;20012;-56